Time;durP1;ratioP1;P1;durP2;ratioP2;P2;SDS_P1;SDS_P2;PMS_P1;PMS_P2;Temp;Humidity;BMP_temperature;BMP_pressure;BME280_temperature;BME280_humidity;BME280_pressure;Samples;Min_cycle;Max_cycle;Signal;HPM_P1;HPM_P2
2022/09/13 00:01:45;;;;;;;4.97;4.33;;;16.30;99.90;;;;;;6219124;23;20437;-71
2022/09/13 00:04:14;;;;;;;4.03;3.73;;;16.30;99.90;;;;;;6217862;23;20974;-71
2022/09/13 00:06:40;;;;;;;4.40;4.00;;;16.30;99.90;;;;;;6218103;23;20744;-71
2022/09/13 00:09:07;;;;;;;4.60;4.20;;;16.20;99.90;;;;;;6218152;23;20507;-71
2022/09/13 00:11:34;;;;;;;5.27;3.90;;;16.20;99.90;;;;;;6217549;23;20448;-71
2022/09/13 00:14:03;;;;;;;5.40;4.50;;;16.20;99.90;;;;;;6217857;23;20490;-71
2022/09/13 00:16:31;;;;;;;4.20;3.90;;;16.20;99.90;;;;;;6218072;23;20498;-71
2022/09/13 00:18:59;;;;;;;4.50;4.00;;;16.20;99.90;;;;;;6217745;23;20771;-71
2022/09/13 00:21:27;;;;;;;4.67;4.27;;;16.10;99.90;;;;;;6217983;23;20455;-71
2022/09/13 00:23:55;;;;;;;3.93;3.63;;;16.20;99.90;;;;;;6217423;23;20518;-71
2022/09/13 00:26:23;;;;;;;4.20;3.80;;;16.20;99.90;;;;;;6226955;23;20494;-73
2022/09/13 00:28:51;;;;;;;3.83;3.53;;;16.20;99.90;;;;;;6217856;23;20515;-71
2022/09/13 00:31:18;;;;;;;3.63;3.33;;;16.20;99.90;;;;;;6218357;23;20447;-71
2022/09/13 00:33:45;;;;;;;6.23;3.30;;;16.10;99.90;;;;;;6218074;23;20436;-71
2022/09/13 00:36:14;;;;;;;4.20;3.50;;;16.20;99.90;;;;;;6217593;23;20416;-71
2022/09/13 00:38:43;;;;;;;3.50;3.27;;;16.20;99.90;;;;;;6217302;23;20439;-71
2022/09/13 00:41:12;;;;;;;3.20;2.90;;;16.20;99.90;;;;;;6217494;23;20483;-71
2022/09/13 00:43:46;;;;;;;3.67;3.40;;;16.20;99.90;;;;;;6217677;23;20472;-71
2022/09/13 00:46:21;;;;;;;3.73;3.43;;;16.10;99.90;;;;;;6217756;23;20427;-71
2022/09/13 00:48:51;;;;;;;4.23;3.73;;;16.10;99.90;;;;;;6217267;23;20478;-71
2022/09/13 00:51:18;;;;;;;3.03;2.83;;;16.10;99.90;;;;;;6219042;23;20470;-72
2022/09/13 00:53:50;;;;;;;5.03;3.40;;;16.10;99.90;;;;;;6222333;23;20412;-72
2022/09/13 00:56:19;;;;;;;6.63;3.90;;;16.10;99.90;;;;;;6220968;23;20427;-71
2022/09/13 00:58:52;;;;;;;4.23;3.83;;;16.10;99.90;;;;;;6219652;23;20510;-72
2022/09/13 01:01:20;;;;;;;4.13;3.80;;;16.10;99.90;;;;;;6219509;23;20400;-71
2022/09/13 01:03:48;;;;;;;3.40;3.10;;;16.10;99.90;;;;;;6220687;23;20522;-70
2022/09/13 01:06:20;;;;;;;5.00;3.10;;;16.10;99.90;;;;;;6223132;23;20506;-70
2022/09/13 01:08:51;;;;;;;3.80;3.40;;;16.00;99.90;;;;;;6221840;23;20479;-71
2022/09/13 01:11:24;;;;;;;3.60;3.30;;;16.00;99.90;;;;;;6221141;23;20415;-71
2022/09/13 01:13:51;;;;;;;3.87;3.20;;;16.00;99.90;;;;;;6219353;23;20471;-71
2022/09/13 01:16:18;;;;;;;3.30;2.97;;;16.00;99.90;;;;;;6219059;23;20443;-72
2022/09/13 01:18:45;;;;;;;3.80;3.50;;;16.00;99.90;;;;;;6218772;23;20483;-71
2022/09/13 01:21:49;;;;;;;3.53;3.23;;;15.90;99.90;;;;;;6219201;23;20895;-71
2022/09/13 01:24:52;;;;;;;3.50;3.27;;;15.90;99.90;;;;;;6218392;23;21001;-71
2022/09/13 01:27:30;;;;;;;3.60;3.30;;;15.90;99.90;;;;;;6126985;23;20774;-71
2022/09/13 01:30:17;;;;;;;3.83;3.40;;;15.90;99.90;;;;;;6126605;23;20506;-71
2022/09/13 01:32:59;;;;;;;3.50;3.30;;;15.80;99.90;;;;;;6127010;23;20720;-71
2022/09/13 01:35:38;;;;;;;4.50;4.10;;;15.80;99.90;;;;;;6126391;23;20486;-71
2022/09/13 01:38:12;;;;;;;3.63;3.33;;;15.70;99.90;;;;;;6126302;23;20489;-72
2022/09/13 01:40:56;;;;;;;3.80;3.50;;;15.80;99.90;;;;;;6126451;23;20498;-72
2022/09/13 01:43:38;;;;;;;3.43;3.13;;;15.80;99.90;;;;;;6126297;23;20430;-71
2022/09/13 01:46:12;;;;;;;3.67;3.37;;;15.80;99.90;;;;;;6126593;23;20418;-72
2022/09/13 01:48:54;;;;;;;4.27;3.87;;;15.80;99.90;;;;;;6127169;23;20418;-72
2022/09/13 01:51:28;;;;;;;3.50;3.00;;;15.80;99.90;;;;;;6128805;23;20497;-72
2022/09/13 01:54:03;;;;;;;5.77;4.60;;;15.70;99.90;;;;;;6128804;23;20399;-72
2022/09/13 01:56:37;;;;;;;3.77;3.40;;;15.70;99.90;;;;;;6129014;23;20497;-72
2022/09/13 01:59:09;;;;;;;3.87;3.57;;;15.70;99.90;;;;;;6129035;23;20941;-72
2022/09/13 02:01:42;;;;;;;3.80;3.50;;;15.60;99.90;;;;;;6128566;23;20481;-72
2022/09/13 02:04:14;;;;;;;3.90;3.60;;;15.60;99.90;;;;;;6147628;23;20964;-72
2022/09/13 02:06:45;;;;;;;4.23;3.83;;;15.60;99.90;;;;;;6189349;23;20401;-72
2022/09/13 02:09:15;;;;;;;4.10;3.70;;;15.60;99.90;;;;;;6188908;23;20401;-72
2022/09/13 02:11:45;;;;;;;3.80;3.50;;;15.50;99.90;;;;;;6189312;23;20488;-72
2022/09/13 02:14:15;;;;;;;3.97;3.67;;;15.50;99.90;;;;;;6189029;23;20424;-72
2022/09/13 02:16:49;;;;;;;7.73;3.60;;;15.50;99.90;;;;;;6188790;23;20915;-72
2022/09/13 02:19:21;;;;;;;3.90;3.60;;;15.50;99.90;;;;;;6189238;23;20463;-72
2022/09/13 02:21:59;;;;;;;4.00;3.70;;;15.50;99.90;;;;;;6188870;23;20401;-72
2022/09/13 02:24:32;;;;;;;3.37;3.17;;;15.50;99.90;;;;;;6189616;23;20429;-72
2022/09/13 02:27:02;;;;;;;3.70;3.40;;;15.50;99.90;;;;;;6190140;23;20432;-72
2022/09/13 02:29:33;;;;;;;3.57;3.30;;;15.50;99.90;;;;;;6189789;23;20503;-72
2022/09/13 02:32:08;;;;;;;4.23;3.83;;;15.50;99.90;;;;;;6190487;23;20401;-72
2022/09/13 02:34:39;;;;;;;4.20;3.80;;;15.50;99.90;;;;;;6189076;23;20407;-72
2022/09/13 02:37:08;;;;;;;3.60;3.40;;;15.50;99.90;;;;;;6188913;23;20488;-72
2022/09/13 02:39:39;;;;;;;4.17;3.77;;;15.50;99.90;;;;;;6208732;23;20514;-72
2022/09/13 02:42:14;;;;;;;5.00;4.00;;;15.50;99.90;;;;;;6218964;23;20479;-72
2022/09/13 02:44:43;;;;;;;3.83;3.53;;;15.50;99.90;;;;;;6218823;23;20470;-72
2022/09/13 02:47:26;;;;;;;4.10;3.80;;;15.40;99.90;;;;;;6218648;23;20515;-72
2022/09/13 02:50:01;;;;;;;4.10;3.70;;;15.40;99.90;;;;;;6218705;23;20431;-72
2022/09/13 02:52:38;;;;;;;4.37;3.93;;;15.40;99.90;;;;;;6218686;23;20400;-72
2022/09/13 02:55:14;;;;;;;4.20;3.80;;;15.40;99.90;;;;;;6218881;23;20486;-72
2022/09/13 02:57:52;;;;;;;4.50;4.10;;;15.40;99.90;;;;;;6218961;23;20400;-72
2022/09/13 03:00:19;;;;;;;5.20;4.07;;;15.40;99.90;;;;;;6219774;23;20442;-71
2022/09/13 03:02:48;;;;;;;4.43;4.00;;;15.40;99.90;;;;;;6218940;23;20419;-72
2022/09/13 03:05:16;;;;;;;3.93;3.57;;;15.40;99.90;;;;;;6219445;23;20921;-72
2022/09/13 03:07:43;;;;;;;3.90;3.60;;;15.40;99.90;;;;;;6219290;23;20495;-72
2022/09/13 03:10:12;;;;;;;4.60;3.90;;;15.40;99.90;;;;;;6220239;23;20762;-72
2022/09/13 03:13:30;;;;;;;4.03;3.73;;;15.40;99.90;;;;;;6219844;23;20439;-72
2022/09/13 03:16:04;;;;;;;4.37;3.97;;;15.40;99.90;;;;;;6127855;23;20399;-72
2022/09/13 03:18:45;;;;;;;4.33;4.03;;;15.40;99.90;;;;;;6127651;23;20457;-72
2022/09/13 03:21:23;;;;;;;6.30;5.53;;;15.40;99.90;;;;;;6128759;23;20398;-72
2022/09/13 03:23:58;;;;;;;4.47;4.00;;;15.40;99.90;;;;;;6130863;23;20493;-72
2022/09/13 03:26:41;;;;;;;4.10;3.80;;;15.30;99.90;;;;;;6131094;23;20498;-72
2022/09/13 03:29:19;;;;;;;4.50;4.10;;;15.30;99.90;;;;;;6130909;23;20497;-72
2022/09/13 03:31:52;;;;;;;4.20;3.90;;;15.30;99.90;;;;;;6127757;23;20485;-72
2022/09/13 03:34:30;;;;;;;4.57;4.17;;;15.30;99.90;;;;;;6127933;23;20524;-72
2022/09/13 03:37:02;;;;;;;5.10;4.00;;;15.30;99.90;;;;;;6127615;23;20513;-72
2022/09/13 03:39:35;;;;;;;4.57;4.17;;;15.20;99.90;;;;;;6127308;23;20537;-72
2022/09/13 03:42:11;;;;;;;5.20;4.20;;;15.20;99.90;;;;;;6128016;23;20892;-72
2022/09/13 03:44:41;;;;;;;4.73;4.33;;;15.20;99.90;;;;;;6127719;23;20426;-72
2022/09/13 03:47:08;;;;;;;4.50;4.20;;;15.20;99.90;;;;;;6127521;23;20426;-72
2022/09/13 03:49:39;;;;;;;4.70;4.30;;;15.20;99.90;;;;;;6176821;23;20420;-72
2022/09/13 03:52:06;;;;;;;5.60;5.10;;;15.30;99.90;;;;;;6219118;23;20424;-72
2022/09/13 03:54:37;;;;;;;4.87;4.47;;;15.20;99.90;;;;;;6219169;23;20890;-72
2022/09/13 03:57:12;;;;;;;4.90;4.50;;;15.20;99.90;;;;;;6219048;23;20482;-72
2022/09/13 03:59:41;;;;;;;4.80;4.40;;;15.30;99.90;;;;;;6218597;23;20408;-72
2022/09/13 04:02:10;;;;;;;4.43;4.10;;;15.30;99.90;;;;;;6217961;23;20506;-70
2022/09/13 04:04:39;;;;;;;7.83;5.33;;;15.30;99.90;;;;;;6219462;23;20435;-72
2022/09/13 04:07:06;;;;;;;8.63;5.20;;;15.40;99.90;;;;;;6219032;23;20415;-71
2022/09/13 04:09:33;;;;;;;5.03;4.53;;;15.40;99.90;;;;;;6218349;23;20495;-72
2022/09/13 04:12:00;;;;;;;5.10;4.70;;;15.40;99.90;;;;;;6219191;23;20498;-72
2022/09/13 04:14:27;;;;;;;6.93;5.60;;;15.40;99.90;;;;;;6219429;23;20498;-72
2022/09/13 04:16:55;;;;;;;5.10;4.60;;;15.40;99.90;;;;;;6218629;23;20412;-72
2022/09/13 04:19:22;;;;;;;5.50;5.00;;;15.50;99.90;;;;;;6218003;23;20416;-72
2022/09/13 04:21:52;;;;;;;5.83;5.33;;;15.50;99.90;;;;;;6218305;23;20419;-72
2022/09/13 04:24:19;;;;;;;6.30;5.70;;;15.40;99.90;;;;;;6218258;23;20535;-72
2022/09/13 04:26:49;;;;;;;5.13;4.73;;;15.40;99.90;;;;;;6219450;23;20515;-71
2022/09/13 04:29:17;;;;;;;5.43;5.03;;;15.40;99.90;;;;;;6220401;23;20400;-71
2022/09/13 04:31:43;;;;;;;5.63;5.13;;;15.40;99.90;;;;;;6220219;23;20423;-71
2022/09/13 04:34:10;;;;;;;6.07;5.57;;;15.40;99.90;;;;;;6219809;23;20480;-72
2022/09/13 04:36:37;;;;;;;5.73;5.23;;;15.30;99.90;;;;;;6220712;23;20458;-72
2022/09/13 04:39:06;;;;;;;5.90;5.40;;;15.40;99.90;;;;;;6218956;23;20436;-72
2022/09/13 04:41:33;;;;;;;5.53;5.03;;;15.40;99.90;;;;;;6221918;23;20442;-71
2022/09/13 04:44:00;;;;;;;5.97;5.50;;;15.40;99.90;;;;;;6223084;23;20415;-72
2022/09/13 04:46:27;;;;;;;5.50;5.00;;;15.40;99.90;;;;;;6225486;23;20494;-72
2022/09/13 04:48:54;;;;;;;5.77;5.37;;;15.40;99.90;;;;;;6226409;23;20504;-72
2022/09/13 04:51:22;;;;;;;7.40;6.70;;;15.40;99.90;;;;;;6224527;23;20492;-71
2022/09/13 04:53:52;;;;;;;6.50;5.37;;;15.30;99.90;;;;;;6220676;23;20416;-71
2022/09/13 04:56:22;;;;;;;6.00;5.43;;;15.30;99.90;;;;;;6221823;23;20706;-71
2022/09/13 04:58:50;;;;;;;8.70;6.13;;;15.30;99.90;;;;;;6222932;23;20415;-71
2022/09/13 05:01:17;;;;;;;7.13;5.83;;;15.30;99.90;;;;;;6223187;23;20422;-70
2022/09/13 05:03:44;;;;;;;7.60;6.20;;;15.30;99.90;;;;;;6223853;23;20458;-70
2022/09/13 05:06:13;;;;;;;6.37;5.83;;;15.30;99.90;;;;;;6224341;23;20966;-71
2022/09/13 05:08:40;;;;;;;6.73;6.23;;;15.20;99.90;;;;;;6229797;23;20462;-71
2022/09/13 05:11:07;;;;;;;7.50;6.20;;;15.20;99.90;;;;;;6223305;23;20495;-71
2022/09/13 05:13:36;;;;;;;6.73;5.97;;;15.20;99.90;;;;;;6225643;23;20415;-71
2022/09/13 05:16:06;;;;;;;7.63;6.27;;;15.20;99.90;;;;;;6226313;23;20423;-71
2022/09/13 05:18:34;;;;;;;6.47;5.87;;;15.20;99.90;;;;;;6227545;23;20471;-71
2022/09/13 05:21:03;;;;;;;6.47;5.97;;;15.20;99.90;;;;;;6226517;23;20400;-71
2022/09/13 05:23:31;;;;;;;10.80;6.50;;;15.20;99.90;;;;;;6228865;23;20917;-72
2022/09/13 05:26:00;;;;;;;7.00;5.90;;;15.30;99.90;;;;;;6228602;23;20451;-72
2022/09/13 05:28:28;;;;;;;6.20;5.60;;;15.30;99.90;;;;;;6228648;23;20472;-71
2022/09/13 05:30:57;;;;;;;6.97;6.20;;;15.30;99.90;;;;;;6230524;23;20458;-71
2022/09/13 05:33:24;;;;;;;10.17;6.13;;;15.30;99.90;;;;;;6229038;23;20419;-72
2022/09/13 05:35:52;;;;;;;7.33;6.20;;;15.30;99.90;;;;;;6229584;23;20446;-72
2022/09/13 05:38:19;;;;;;;7.90;6.00;;;15.30;99.90;;;;;;6229787;23;20454;-72
2022/09/13 05:40:46;;;;;;;6.20;5.70;;;15.30;99.90;;;;;;6238610;23;20419;-71
2022/09/13 05:43:13;;;;;;;7.00;6.40;;;15.20;99.90;;;;;;6229297;23;20920;-71
2022/09/13 05:45:40;;;;;;;6.57;5.97;;;15.20;99.90;;;;;;6228261;23;20451;-71
2022/09/13 05:48:08;;;;;;;7.37;6.70;;;15.20;99.90;;;;;;6228476;23;20480;-71
2022/09/13 05:50:38;;;;;;;7.60;6.30;;;15.20;99.90;;;;;;6230381;23;20447;-71
2022/09/13 05:53:05;;;;;;;7.50;6.80;;;15.20;99.90;;;;;;6228044;23;20422;-70
2022/09/13 05:55:32;;;;;;;8.60;6.60;;;15.20;99.90;;;;;;6218668;23;20422;-71
2022/09/13 05:58:01;;;;;;;9.73;7.30;;;15.30;99.90;;;;;;6218888;23;20424;-71
2022/09/13 06:00:28;;;;;;;7.40;6.73;;;15.30;99.90;;;;;;6218566;23;20439;-69
2022/09/13 06:02:56;;;;;;;11.60;7.47;;;15.30;99.90;;;;;;6218642;23;20761;-69
2022/09/13 06:05:24;;;;;;;10.67;7.17;;;15.30;99.90;;;;;;6219229;23;20730;-69
2022/09/13 06:07:51;;;;;;;8.10;7.00;;;15.20;99.90;;;;;;6219039;23;20416;-69
2022/09/13 06:10:19;;;;;;;7.83;7.13;;;15.20;99.90;;;;;;6218485;23;20889;-71
2022/09/13 06:12:46;;;;;;;7.80;7.10;;;15.20;99.90;;;;;;6219070;23;20419;-70
2022/09/13 06:15:13;;;;;;;8.30;7.60;;;15.20;99.90;;;;;;6218966;23;20498;-69
2022/09/13 06:17:40;;;;;;;8.80;8.00;;;15.10;99.90;;;;;;6218666;23;20529;-70
2022/09/13 06:20:08;;;;;;;14.87;7.87;;;15.10;99.90;;;;;;6218208;23;20455;-70
2022/09/13 06:22:36;;;;;;;16.90;8.60;;;15.00;99.90;;;;;;6218783;23;20684;-70
2022/09/13 06:25:04;;;;;;;8.83;8.03;;;15.00;99.90;;;;;;6218333;23;20522;-70
2022/09/13 06:27:31;;;;;;;10.00;8.40;;;14.90;99.90;;;;;;6219283;23;20420;-71
2022/09/13 06:29:58;;;;;;;10.57;8.90;;;14.90;99.90;;;;;;6219590;23;20726;-70
2022/09/13 06:32:25;;;;;;;9.77;8.47;;;14.80;99.90;;;;;;6219254;23;20485;-71
2022/09/13 06:34:52;;;;;;;9.57;8.73;;;14.80;99.90;;;;;;6218577;23;20419;-71
2022/09/13 06:37:19;;;;;;;15.10;9.30;;;14.80;99.90;;;;;;6218458;23;20447;-70
2022/09/13 06:39:47;;;;;;;10.20;9.10;;;14.80;99.90;;;;;;6219687;23;20781;-71
2022/09/13 06:42:14;;;;;;;13.37;9.57;;;14.70;99.90;;;;;;6220039;23;20925;-71
2022/09/13 06:44:40;;;;;;;10.60;9.60;;;14.60;99.90;;;;;;6218238;23;20953;-71
2022/09/13 06:47:07;;;;;;;12.30;10.03;;;14.50;99.90;;;;;;6218158;23;20423;-71
2022/09/13 06:49:34;;;;;;;11.37;10.27;;;14.40;99.90;;;;;;6218579;23;20448;-72
2022/09/13 06:52:01;;;;;;;10.97;9.60;;;14.40;99.90;;;;;;6218934;23;20498;-71
2022/09/13 06:54:28;;;;;;;11.53;10.27;;;14.50;99.90;;;;;;6218957;23;20443;-70
2022/09/13 06:56:56;;;;;;;10.80;9.80;;;14.50;99.90;;;;;;6218263;23;20953;-71
2022/09/13 06:59:23;;;;;;;11.27;10.27;;;14.60;99.90;;;;;;6218125;23;20498;-71
2022/09/13 07:01:50;;;;;;;12.50;10.87;;;14.70;99.90;;;;;;6218591;23;20746;-71
2022/09/13 07:04:18;;;;;;;12.70;10.90;;;14.80;99.90;;;;;;6218259;23;20494;-71
2022/09/13 07:06:47;;;;;;;13.40;10.70;;;14.80;99.90;;;;;;6218095;23;20455;-71
2022/09/13 07:09:17;;;;;;;12.90;11.40;;;14.90;99.90;;;;;;6217860;23;20451;-71
2022/09/13 07:11:45;;;;;;;11.83;10.30;;;15.00;99.90;;;;;;6216626;23;20400;-70
2022/09/13 07:14:15;;;;;;;11.10;9.57;;;15.00;99.90;;;;;;6218083;23;20518;-71
2022/09/13 07:16:42;;;;;;;12.37;9.87;;;15.00;99.90;;;;;;6217997;23;20412;-70
2022/09/13 07:19:15;;;;;;;10.70;9.63;;;15.10;99.90;;;;;;6217394;23;20895;-70
2022/09/13 07:21:42;;;;;;;14.60;10.57;;;15.20;99.90;;;;;;6218354;23;20404;-70
2022/09/13 07:24:09;;;;;;;14.87;10.83;;;15.30;99.90;;;;;;6217910;23;20458;-72
2022/09/13 07:26:36;;;;;;;12.13;9.30;;;15.30;99.90;;;;;;6218123;23;20722;-70
2022/09/13 07:29:07;;;;;;;10.00;8.90;;;15.30;99.90;;;;;;6218187;23;20443;-70
2022/09/13 07:31:37;;;;;;;11.10;9.97;;;15.40;99.90;;;;;;6218306;23;20740;-70
2022/09/13 07:34:06;;;;;;;10.47;9.37;;;15.50;99.90;;;;;;6217984;23;20487;-70
2022/09/13 07:36:35;;;;;;;17.30;10.00;;;15.60;99.90;;;;;;6217668;23;20491;-71
2022/09/13 07:39:02;;;;;;;11.47;9.03;;;15.70;99.90;;;;;;6217604;23;20531;-72
2022/09/13 07:41:31;;;;;;;11.53;10.43;;;15.70;99.90;;;;;;6217962;23;20499;-71
2022/09/13 07:43:59;;;;;;;11.40;9.33;;;15.80;99.90;;;;;;6217448;23;20416;-71
2022/09/13 07:46:30;;;;;;;10.63;9.63;;;15.80;99.90;;;;;;6217231;23;20439;-71
2022/09/13 07:49:00;;;;;;;11.03;9.93;;;15.90;99.90;;;;;;6217528;23;20400;-71
2022/09/13 07:51:29;;;;;;;11.57;10.33;;;15.90;99.90;;;;;;6217671;23;20498;-71
2022/09/13 07:53:57;;;;;;;14.83;10.27;;;16.00;99.90;;;;;;6217468;23;20426;-71
2022/09/13 07:56:26;;;;;;;13.63;11.27;;;16.00;99.90;;;;;;6217889;23;20439;-71
2022/09/13 07:58:53;;;;;;;11.23;10.07;;;16.10;99.90;;;;;;6217930;23;20415;-71
2022/09/13 08:01:22;;;;;;;11.17;9.20;;;16.20;99.90;;;;;;6217352;23;20434;-71
2022/09/13 08:03:52;;;;;;;11.27;10.00;;;16.30;99.90;;;;;;6217685;23;20752;-71
2022/09/13 08:06:20;;;;;;;14.50;12.20;;;16.30;99.90;;;;;;6217519;23;20475;-71
2022/09/13 08:08:47;;;;;;;11.80;10.40;;;16.40;99.90;;;;;;6217759;23;20668;-71
2022/09/13 08:11:18;;;;;;;12.10;9.07;;;16.60;99.90;;;;;;6217929;23;20494;-71
2022/09/13 08:13:45;;;;;;;9.53;8.50;;;16.70;99.90;;;;;;6217429;23;20415;-71
2022/09/13 08:16:13;;;;;;;14.00;9.43;;;16.70;99.90;;;;;;6217362;23;20507;-71
2022/09/13 08:18:44;;;;;;;10.70;9.70;;;16.70;99.90;;;;;;6217087;23;20454;-71
2022/09/13 08:21:11;;;;;;;10.13;9.10;;;16.80;99.90;;;;;;6217758;23;20415;-71
2022/09/13 08:23:39;;;;;;;10.80;8.30;;;16.80;99.90;;;;;;6217410;23;20448;-70
2022/09/13 08:26:07;;;;;;;9.40;8.50;;;16.90;99.90;;;;;;6217178;23;20442;-71
2022/09/13 08:28:35;;;;;;;11.30;9.40;;;16.90;99.90;;;;;;6217231;23;20423;-71
2022/09/13 08:31:06;;;;;;;10.33;9.23;;;16.90;99.90;;;;;;6217496;23;20777;-71
2022/09/13 08:33:34;;;;;;;9.67;8.63;;;17.00;99.90;;;;;;6217232;23;20455;-70
2022/09/13 08:36:01;;;;;;;9.97;8.90;;;17.00;99.90;;;;;;6217601;23;20494;-71
2022/09/13 08:38:28;;;;;;;11.47;10.27;;;17.00;99.90;;;;;;6217279;23;20444;-71
2022/09/13 08:40:59;;;;;;;9.53;8.63;;;17.00;99.90;;;;;;6227360;23;20423;-71
2022/09/13 08:43:44;;;;;;;9.53;8.53;;;17.10;99.90;;;;;;6217779;23;20400;-71
2022/09/13 08:46:19;;;;;;;10.03;8.97;;;17.10;99.90;;;;;;6217479;23;20426;-71
2022/09/13 08:48:49;;;;;;;12.73;9.67;;;17.10;99.90;;;;;;6217336;23;20403;-71
2022/09/13 08:51:29;;;;;;;10.60;9.40;;;17.10;99.90;;;;;;6217627;23;20519;-70
2022/09/13 08:53:57;;;;;;;10.60;8.60;;;17.10;99.90;;;;;;6217531;23;20795;-71
2022/09/13 08:56:35;;;;;;;10.57;8.57;;;17.20;99.90;;;;;;6217291;23;20494;-71
2022/09/13 08:59:17;;;;;;;8.93;8.03;;;17.30;99.90;;;;;;6217909;23;20502;-70
2022/09/13 09:01:54;;;;;;;10.37;9.27;;;17.50;99.90;;;;;;6218435;23;20830;-71
2022/09/13 09:04:37;;;;;;;9.17;8.37;;;17.50;99.90;;;;;;6219617;23;20442;-71
2022/09/13 09:07:09;;;;;;;9.70;8.33;;;17.60;99.90;;;;;;6219651;23;20423;-71
2022/09/13 09:09:41;;;;;;;9.27;8.40;;;17.70;99.90;;;;;;6219352;23;20442;-71
2022/09/13 09:12:18;;;;;;;8.77;7.87;;;17.80;99.90;;;;;;6219756;23;20400;-69
2022/09/13 09:14:48;;;;;;;9.63;8.73;;;17.80;99.90;;;;;;6219615;23;20486;-70
2022/09/13 09:17:18;;;;;;;11.17;9.03;;;17.80;99.90;;;;;;6219559;23;20411;-70
2022/09/13 09:19:48;;;;;;;9.10;7.80;;;17.90;99.90;;;;;;6219427;23;20788;-70
2022/09/13 09:22:20;;;;;;;9.73;8.03;;;17.90;99.90;;;;;;6219491;23;20784;-71
2022/09/13 09:24:52;;;;;;;10.10;8.57;;;18.00;99.90;;;;;;6219066;23;20404;-70
2022/09/13 09:27:21;;;;;;;9.67;8.77;;;18.10;99.90;;;;;;6219069;23;20510;-72
2022/09/13 09:29:50;;;;;;;9.73;8.60;;;18.10;99.90;;;;;;6219057;23;20423;-70
2022/09/13 09:32:30;;;;;;;10.13;8.20;;;18.40;99.90;;;;;;6219416;23;20498;-70
2022/09/13 09:35:10;;;;;;;8.97;8.07;;;18.50;99.90;;;;;;6219176;23;20400;-70
2022/09/13 09:37:38;;;;;;;10.33;8.17;;;18.60;99.90;;;;;;6219060;23;20391;-70
2022/09/13 09:40:11;;;;;;;8.30;7.27;;;18.70;99.90;;;;;;6218683;23;20443;-70
2022/09/13 09:42:43;;;;;;;10.00;8.40;;;18.80;99.90;;;;;;6218815;23;20703;-70
2022/09/13 09:45:25;;;;;;;9.50;7.73;;;18.80;99.90;;;;;;6219593;23;20432;-70
2022/09/13 09:47:53;;;;;;;8.63;7.10;;;19.00;99.90;;;;;;6218942;23;20424;-71
2022/09/13 09:50:23;;;;;;;9.03;8.20;;;19.20;99.90;;;;;;6218858;23;20933;-70
2022/09/13 09:52:57;;;;;;;11.13;8.43;;;19.40;99.90;;;;;;6219067;23;20465;-70
2022/09/13 09:55:29;;;;;;;10.93;7.80;;;19.70;99.90;;;;;;6219845;23;20411;-71
2022/09/13 09:57:59;;;;;;;9.73;7.03;;;19.90;99.90;;;;;;6218988;23;20490;-70
2022/09/13 10:00:30;;;;;;;9.00;7.20;;;20.10;99.90;;;;;;6218896;23;20426;-70
2022/09/13 10:03:00;;;;;;;8.23;7.33;;;20.20;99.90;;;;;;6218811;23;20443;-70
2022/09/13 10:05:31;;;;;;;8.13;6.50;;;20.20;99.90;;;;;;6218246;23;20836;-70
2022/09/13 10:08:01;;;;;;;8.70;7.50;;;20.20;99.90;;;;;;6218448;23;20530;-70
2022/09/13 10:10:37;;;;;;;8.17;6.77;;;20.10;99.90;;;;;;6218609;23;20506;-70
2022/09/13 10:13:13;;;;;;;7.77;6.97;;;20.10;99.90;;;;;;6218055;23;20461;-70
2022/09/13 10:15:53;;;;;;;7.70;7.00;;;20.20;99.90;;;;;;6218083;23;20491;-70
2022/09/13 10:18:22;;;;;;;10.07;7.20;;;20.10;99.90;;;;;;6219088;23;20461;-70
2022/09/13 10:21:03;;;;;;;9.07;6.60;;;20.20;99.90;;;;;;6218288;23;20443;-70
2022/09/13 10:23:31;;;;;;;8.17;6.93;;;20.30;99.90;;;;;;6218435;23;20400;-70
2022/09/13 10:26:02;;;;;;;6.83;6.23;;;20.50;99.90;;;;;;6219141;23;20506;-71
2022/09/13 10:28:34;;;;;;;8.57;7.00;;;20.70;99.90;;;;;;6220946;23;20410;-72
2022/09/13 10:31:05;;;;;;;8.70;7.17;;;20.90;99.90;;;;;;6220456;23;20463;-71
2022/09/13 10:33:36;;;;;;;9.43;7.90;;;20.90;99.90;;;;;;6221817;23;20412;-72
2022/09/13 10:36:06;;;;;;;9.53;7.50;;;20.80;99.90;;;;;;6221977;23;20469;-72
2022/09/13 10:38:36;;;;;;;7.57;6.87;;;20.70;99.90;;;;;;6222819;23;20439;-72
2022/09/13 10:41:06;;;;;;;8.33;7.40;;;20.70;99.90;;;;;;6221971;23;20400;-72
2022/09/13 10:43:35;;;;;;;10.83;8.60;;;20.70;99.90;;;;;;6223855;23;20941;-70
2022/09/13 10:46:05;;;;;;;9.23;8.30;;;20.50;99.90;;;;;;6220203;23;20503;-70
2022/09/13 10:48:45;;;;;;;8.80;7.90;;;20.30;99.90;;;;;;6222402;23;20499;-71
2022/09/13 10:51:28;;;;;;;8.33;7.53;;;20.20;99.90;;;;;;6228457;23;20835;-71
2022/09/13 10:54:09;;;;;;;8.40;7.57;;;20.20;99.90;;;;;;6224127;23;20404;-70
2022/09/13 10:56:36;;;;;;;10.83;8.20;;;20.30;99.90;;;;;;6223189;23;20416;-71
2022/09/13 10:59:19;;;;;;;9.47;8.40;;;20.20;99.90;;;;;;6232090;23;20448;-72
2022/09/13 11:02:11;;;;;;;9.43;8.53;;;20.20;99.90;;;;;;6227894;23;20431;-71
2022/09/13 11:05:05;;;;;;;9.07;8.27;;;20.20;99.90;;;;;;6223607;23;20432;-71
2022/09/13 11:07:48;;;;;;;11.00;8.73;;;20.10;99.90;;;;;;6221928;23;20483;-73
2022/09/13 11:10:25;;;;;;;9.50;8.60;;;20.10;99.90;;;;;;6225367;23;20435;-71
2022/09/13 11:13:01;;;;;;;9.07;8.27;;;20.00;99.90;;;;;;6223114;23;20406;-70
2022/09/13 11:15:39;;;;;;;9.67;8.67;;;19.90;99.90;;;;;;6226212;23;20400;-71
2022/09/13 11:18:28;;;;;;;10.60;8.50;;;19.80;99.90;;;;;;6222424;23;20396;-70
2022/09/13 11:21:07;;;;;;;10.10;8.13;;;19.80;99.90;;;;;;6221224;23;20491;-70
2022/09/13 11:23:57;;;;;;;11.63;8.40;;;19.70;99.90;;;;;;6219774;23;20401;-70
2022/09/13 11:26:40;;;;;;;10.33;8.30;;;19.70;99.90;;;;;;6221190;23;20494;-71
2022/09/13 11:29:21;;;;;;;9.17;8.27;;;19.60;99.90;;;;;;6230304;23;20416;-71
2022/09/13 11:32:00;;;;;;;11.30;8.20;;;19.60;99.90;;;;;;6218891;23;20479;-71
2022/09/13 11:34:38;;;;;;;8.90;8.00;;;19.60;99.90;;;;;;6219778;23;20491;-71
2022/09/13 11:37:30;;;;;;;9.10;8.23;;;19.60;99.90;;;;;;6221660;23;20409;-71
2022/09/13 11:40:08;;;;;;;8.60;7.80;;;19.70;99.90;;;;;;6223191;23;20436;-71
2022/09/13 11:42:46;;;;;;;12.10;7.43;;;19.70;99.90;;;;;;6221523;23;20404;-71
2022/09/13 11:45:20;;;;;;;9.10;7.80;;;19.60;99.90;;;;;;6219882;23;20431;-71
2022/09/13 11:48:04;;;;;;;9.40;8.20;;;19.60;99.90;;;;;;6220479;23;20451;-71
2022/09/13 11:50:38;;;;;;;9.43;8.03;;;19.60;99.90;;;;;;6219562;23;20479;-71
2022/09/13 11:53:44;;;;;;;8.27;7.40;;;19.60;99.90;;;;;;6220633;23;20696;-71
2022/09/13 11:56:16;;;;;;;10.43;8.60;;;19.60;99.90;;;;;;6131520;23;20527;-72
2022/09/13 11:58:48;;;;;;;9.60;8.60;;;19.60;99.90;;;;;;6130225;23;20492;-71
2022/09/13 12:01:21;;;;;;;10.20;8.57;;;19.60;99.90;;;;;;6128493;23;20497;-72
2022/09/13 12:03:55;;;;;;;10.60;9.50;;;19.60;99.90;;;;;;6128961;23;20487;-71
2022/09/13 12:06:26;;;;;;;9.87;8.83;;;19.50;99.90;;;;;;6131087;23;20411;-72
2022/09/13 12:08:57;;;;;;;10.87;9.50;;;19.50;99.90;;;;;;6132694;23;21026;-72
2022/09/13 12:11:28;;;;;;;11.73;9.40;;;19.50;99.90;;;;;;6130169;23;20471;-72
2022/09/13 12:13:59;;;;;;;10.87;9.77;;;19.40;99.90;;;;;;6129276;23;20512;-70
2022/09/13 12:16:30;;;;;;;11.50;9.80;;;19.20;99.90;;;;;;6130819;23;20493;-71
2022/09/13 12:19:01;;;;;;;14.43;10.23;;;19.10;99.90;;;;;;6132407;23;20434;-69
2022/09/13 12:21:32;;;;;;;12.20;10.13;;;19.00;99.90;;;;;;6130208;23;20482;-71
2022/09/13 12:24:05;;;;;;;10.90;9.83;;;18.90;99.90;;;;;;6128191;23;20398;-71
2022/09/13 12:26:37;;;;;;;11.40;10.20;;;18.80;99.90;;;;;;6127984;23;20777;-71
2022/09/13 12:29:13;;;;;;;11.17;10.17;;;18.80;99.90;;;;;;6131205;23;20490;-71
2022/09/13 12:31:40;;;;;;;11.47;10.27;;;18.90;99.90;;;;;;6131407;23;20430;-71
2022/09/13 12:34:15;;;;;;;11.37;10.10;;;18.90;99.90;;;;;;6211375;23;20444;-71
2022/09/13 12:37:14;;;;;;;12.10;9.73;;;18.90;99.90;;;;;;6225520;23;20403;-71
2022/09/13 12:39:55;;;;;;;12.10;10.27;;;18.90;99.90;;;;;;6201196;23;20470;-71
2022/09/13 12:43:04;;;;;;;11.70;10.30;;;18.90;99.90;;;;;;6224149;23;20404;-71
2022/09/13 12:46:12;;;;;;;11.47;10.27;;;19.00;99.90;;;;;;6219812;23;20407;-70
2022/09/13 12:49:07;;;;;;;10.93;9.70;;;19.00;99.90;;;;;;6217246;23;20443;-70
2022/09/13 12:51:48;;;;;;;10.80;9.50;;;19.00;99.90;;;;;;6231070;23;20416;-71
2022/09/13 12:54:43;;;;;;;11.70;10.50;;;19.00;99.90;;;;;;6225414;23;20396;-71
2022/09/13 12:57:23;;;;;;;11.00;9.23;;;19.10;99.90;;;;;;6220681;23;20470;-71
2022/09/13 13:00:11;;;;;;;11.73;10.53;;;19.00;99.90;;;;;;6222904;23;20483;-71
2022/09/13 13:02:40;;;;;;;11.60;9.60;;;19.00;99.90;;;;;;6218267;23;20400;-72
2022/09/13 13:05:21;;;;;;;9.73;8.77;;;19.00;99.90;;;;;;6217531;23;20503;-71
2022/09/13 13:07:55;;;;;;;8.40;7.47;;;19.00;99.90;;;;;;6217108;23;21001;-71
2022/09/13 13:10:29;;;;;;;8.17;7.37;;;19.00;99.90;;;;;;6216845;23;20411;-71